createdAt,value
2022-10-22T00:00:38.766Z,71.76
2022-10-22T00:03:05.465Z,71.70
2022-10-22T00:05:32.231Z,72.02
2022-10-22T00:07:58.968Z,71.97
2022-10-22T00:10:25.694Z,71.73
2022-10-22T00:12:52.582Z,72.11
2022-10-22T00:15:19.247Z,71.79
2022-10-22T00:17:47.060Z,71.93
2022-10-22T00:20:14.151Z,71.97
2022-10-22T00:22:40.917Z,71.72
2022-10-22T00:25:07.789Z,71.66
2022-10-22T00:27:34.496Z,71.56
2022-10-22T00:30:01.199Z,71.66
2022-10-22T00:32:27.913Z,71.56
2022-10-22T00:34:54.598Z,71.64
2022-10-22T00:37:21.442Z,71.52
2022-10-22T00:39:48.286Z,71.60
2022-10-22T00:42:17.940Z,71.56
2022-10-22T00:45:05.052Z,71.24
2022-10-22T00:47:54.455Z,71.29
2022-10-22T00:50:26.441Z,71.51
2022-10-22T00:52:53.222Z,71.66
2022-10-22T00:55:20.163Z,71.64
2022-10-22T00:57:46.907Z,71.43
2022-10-22T01:00:14.092Z,71.36
2022-10-22T01:02:41.154Z,71.08
2022-10-22T01:05:08.523Z,71.28
2022-10-22T01:07:47.300Z,71.17
2022-10-22T01:10:23.215Z,71.38
2022-10-22T01:13:05.814Z,71.60
2022-10-22T01:15:57.018Z,71.56
2022-10-22T01:18:31.108Z,71.98
2022-10-22T01:21:24.424Z,71.71
2022-10-22T01:24:28.936Z,71.82
2022-10-22T01:27:16.638Z,71.67
2022-10-22T01:29:52.098Z,71.75
2022-10-22T01:32:21.014Z,71.89
2022-10-22T01:34:50.607Z,71.78
2022-10-22T01:37:17.359Z,71.79
2022-10-22T01:39:44.304Z,72.03
2022-10-22T01:42:12.752Z,72.20
2022-10-22T01:44:39.523Z,72.04
2022-10-22T01:47:28.056Z,72.08
2022-10-22T01:50:16.624Z,72.35
2022-10-22T01:53:08.881Z,72.49
2022-10-22T01:55:52.123Z,72.60
2022-10-22T01:58:18.824Z,72.59
2022-10-22T02:00:51.023Z,72.72
2022-10-22T02:03:23.670Z,72.80
2022-10-22T02:05:55.822Z,72.93
2022-10-22T02:08:28.669Z,73.04
2022-10-22T02:10:55.559Z,72.89
2022-10-22T02:13:37.642Z,73.01
2022-10-22T02:16:05.356Z,72.98
2022-10-22T02:18:35.262Z,72.86
2022-10-22T02:21:04.370Z,73.03
2022-10-22T02:23:31.140Z,73.00
2022-10-22T02:26:03.829Z,73.11
2022-10-22T02:28:38.058Z,72.97
2022-10-22T02:31:14.879Z,72.96
2022-10-22T02:33:44.548Z,73.08
2022-10-22T02:36:11.431Z,73.20
2022-10-22T02:38:38.072Z,73.02
2022-10-22T02:41:04.820Z,73.08
2022-10-22T02:43:31.551Z,73.01
2022-10-22T02:45:58.286Z,73.02
2022-10-22T02:48:25.103Z,73.01
2022-10-22T02:50:51.861Z,72.79
2022-10-22T02:53:18.563Z,72.95
2022-10-22T02:55:45.318Z,72.75
2022-10-22T02:58:14.029Z,72.84
2022-10-22T03:00:40.783Z,72.74
2022-10-22T03:03:07.710Z,72.68
2022-10-22T03:05:34.549Z,72.90
2022-10-22T03:08:01.155Z,72.53
2022-10-22T03:10:28.028Z,72.85
2022-10-22T03:12:54.703Z,72.80
2022-10-22T03:15:21.538Z,72.64
2022-10-22T03:17:48.400Z,72.88
2022-10-22T03:20:15.165Z,72.79
2022-10-22T03:22:42.239Z,72.78
2022-10-22T03:25:11.077Z,73.01
2022-10-22T03:27:38.024Z,72.96
2022-10-22T03:30:05.846Z,73.21
2022-10-22T03:32:32.581Z,73.10
2022-10-22T03:37:27.143Z,73.15
2022-10-22T03:39:53.987Z,73.28
2022-10-22T03:42:21.238Z,73.06
2022-10-22T03:44:47.952Z,73.46
2022-10-22T03:47:14.755Z,73.21
2022-10-22T03:49:41.477Z,73.33
2022-10-22T03:52:14.019Z,73.47
2022-10-22T03:54:41.084Z,73.42
2022-10-22T03:57:08.057Z,73.29
2022-10-22T03:59:36.512Z,73.17
2022-10-22T04:02:03.380Z,73.31
2022-10-22T04:04:30.186Z,73.10
2022-10-22T04:06:56.995Z,73.18
2022-10-22T04:09:23.720Z,72.90
2022-10-22T04:11:50.449Z,73.09
2022-10-22T04:14:17.387Z,73.21
2022-10-22T04:16:44.091Z,73.34
2022-10-22T04:19:10.827Z,73.10
2022-10-22T04:21:37.599Z,73.25
2022-10-22T04:24:04.545Z,73.06
2022-10-22T04:26:31.324Z,73.46
2022-10-22T04:28:58.125Z,73.26
2022-10-22T04:31:25.045Z,73.29
2022-10-22T04:33:56.282Z,73.20
2022-10-22T04:36:23.257Z,73.31
2022-10-22T04:38:58.240Z,73.41
2022-10-22T04:41:30.235Z,73.46
2022-10-22T04:43:57.230Z,73.44
2022-10-22T04:46:24.205Z,73.25
2022-10-22T04:48:50.850Z,73.33
2022-10-22T04:51:19.394Z,73.12
2022-10-22T04:53:46.329Z,73.17
2022-10-22T04:56:16.357Z,73.23
2022-10-22T04:58:43.595Z,73.11
2022-10-22T05:01:15.432Z,72.85
2022-10-22T05:03:42.411Z,72.80
2022-10-22T05:06:09.349Z,72.94
2022-10-22T05:08:36.288Z,72.49
2022-10-22T05:11:11.412Z,72.64
2022-10-22T05:13:38.358Z,72.59
2022-10-22T05:16:05.069Z,72.53
2022-10-22T05:18:34.694Z,72.34
2022-10-22T05:21:01.430Z,72.35
2022-10-22T05:23:28.761Z,72.37
2022-10-22T05:25:55.471Z,72.14
2022-10-22T05:28:22.324Z,72.55
2022-10-22T05:30:55.777Z,72.41
2022-10-22T05:33:24.124Z,72.50
2022-10-22T05:35:51.364Z,72.45
2022-10-22T05:38:18.163Z,72.58
2022-10-22T05:40:44.939Z,72.65
2022-10-22T05:43:11.739Z,72.69
2022-10-22T05:45:38.945Z,72.52
2022-10-22T05:48:06.830Z,72.70
2022-10-22T05:50:36.705Z,72.56
2022-10-22T05:53:04.179Z,72.53
2022-10-22T05:55:31.070Z,72.41
2022-10-22T05:57:57.717Z,72.32
2022-10-22T06:00:24.423Z,72.52
2022-10-22T06:02:51.301Z,72.25
2022-10-22T06:05:18.108Z,72.13
2022-10-22T06:07:44.866Z,71.77
2022-10-22T06:10:14.568Z,71.91
2022-10-22T06:12:41.493Z,71.66
2022-10-22T06:15:10.334Z,71.60
2022-10-22T06:17:37.085Z,71.61
2022-10-22T06:22:31.774Z,71.11
2022-10-22T06:24:58.518Z,71.24
2022-10-22T06:27:25.258Z,71.24
2022-10-22T06:29:51.983Z,71.33
2022-10-22T06:32:18.725Z,71.38
2022-10-22T06:34:46.235Z,71.14
2022-10-22T06:37:15.336Z,71.16
2022-10-22T06:39:42.073Z,71.02
2022-10-22T06:42:08.813Z,70.97
2022-10-22T06:44:36.180Z,70.77
2022-10-22T06:47:02.951Z,70.33
2022-10-22T06:49:29.620Z,70.37
2022-10-22T06:51:56.358Z,70.40
2022-10-22T06:54:23.111Z,70.45
2022-10-22T06:56:49.892Z,70.25
2022-10-22T06:59:16.552Z,70.66
2022-10-22T07:01:43.418Z,70.73
2022-10-22T07:04:10.259Z,70.79
2022-10-22T07:06:37.037Z,70.71
2022-10-22T07:09:03.819Z,70.93
2022-10-22T07:11:41.916Z,70.61
2022-10-22T07:14:08.870Z,70.75
2022-10-22T07:16:35.514Z,70.76
2022-10-22T07:19:02.572Z,70.35
2022-10-22T07:21:29.718Z,70.50
2022-10-22T07:23:56.743Z,70.37
2022-10-22T07:26:25.396Z,70.12
2022-10-22T07:28:52.135Z,70.10
2022-10-22T07:31:18.930Z,69.84
2022-10-22T07:33:45.596Z,69.89
2022-10-22T07:36:17.537Z,69.94
2022-10-22T07:38:48.495Z,70.07
2022-10-22T07:41:16.027Z,70.00
2022-10-22T07:43:42.907Z,70.08
2022-10-22T07:46:09.597Z,69.79
2022-10-22T07:48:36.750Z,69.41
2022-10-22T07:51:03.763Z,69.40
2022-10-22T07:53:30.674Z,69.65
2022-10-22T07:55:58.216Z,69.64
2022-10-22T07:58:25.069Z,69.71
2022-10-22T08:00:51.743Z,69.63
2022-10-22T08:03:18.562Z,69.54
2022-10-22T08:05:45.358Z,69.72
2022-10-22T08:08:15.405Z,69.71
2022-10-22T08:10:42.853Z,69.54
2022-10-22T08:13:09.611Z,69.35
2022-10-22T08:15:36.460Z,69.41
2022-10-22T08:18:03.497Z,69.42
2022-10-22T08:20:30.247Z,69.25
2022-10-22T08:22:57.011Z,69.26
2022-10-22T08:25:23.646Z,69.24
2022-10-22T08:27:50.431Z,69.20
2022-10-22T08:30:17.274Z,69.22
2022-10-22T08:32:44.135Z,69.38
2022-10-22T08:35:14.067Z,69.52
2022-10-22T08:37:43.725Z,69.53
2022-10-22T08:40:12.324Z,69.44
2022-10-22T08:42:44.003Z,69.49
2022-10-22T08:45:20.096Z,69.49
2022-10-22T08:48:05.396Z,69.46
2022-10-22T08:50:46.324Z,69.42
2022-10-22T08:53:25.854Z,69.28
2022-10-22T08:55:53.173Z,69.36
2022-10-22T08:58:22.289Z,69.25
2022-10-22T09:00:52.079Z,69.36
2022-10-22T09:03:46.746Z,69.37
2022-10-22T09:06:22.681Z,69.04
2022-10-22T09:08:49.546Z,68.84
2022-10-22T09:11:16.179Z,68.78
2022-10-22T09:13:44.362Z,68.78
2022-10-22T09:16:19.454Z,68.77
2022-10-22T09:18:56.023Z,68.89
2022-10-22T09:21:53.051Z,69.13
2022-10-22T09:24:22.380Z,69.08
2022-10-22T09:26:49.162Z,69.29
2022-10-22T09:29:19.320Z,69.44
2022-10-22T09:31:46.336Z,69.35
2022-10-22T09:34:19.627Z,69.33
2022-10-22T09:36:46.419Z,69.38
2022-10-22T09:39:33.404Z,69.67
2022-10-22T09:42:00.234Z,70.06
2022-10-22T09:44:26.870Z,70.04
2022-10-22T09:46:53.699Z,69.96
2022-10-22T09:50:41.633Z,70.01
2022-10-22T09:53:23.153Z,70.08
2022-10-22T09:58:23.030Z,69.99
2022-10-22T10:00:58.233Z,70.00
2022-10-22T10:03:31.003Z,70.02
2022-10-22T10:06:02.972Z,70.40
2022-10-22T10:08:32.840Z,70.45
2022-10-22T10:11:00.297Z,70.67
2022-10-22T10:13:47.436Z,70.62
2022-10-22T10:16:45.376Z,70.55
2022-10-22T10:19:35.959Z,70.54
2022-10-22T10:22:05.661Z,70.63
2022-10-22T10:24:41.394Z,70.91
2022-10-22T10:27:40.627Z,70.71
2022-10-22T10:30:20.670Z,70.66
2022-10-22T10:33:12.073Z,70.78
2022-10-22T10:36:03.776Z,70.74
2022-10-22T10:38:33.163Z,70.64
2022-10-22T10:41:06.069Z,70.58
2022-10-22T10:43:48.959Z,70.44
2022-10-22T10:46:23.160Z,70.51
2022-10-22T10:48:59.906Z,70.41
2022-10-22T10:51:56.231Z,70.50
2022-10-22T10:54:31.833Z,70.81
2022-10-22T10:57:12.148Z,70.75
2022-10-22T11:00:07.010Z,70.64
2022-10-22T11:03:01.022Z,70.64
2022-10-22T11:06:00.836Z,70.52
2022-10-22T11:08:34.602Z,70.79
2022-10-22T11:11:04.065Z,70.68
2022-10-22T11:13:36.243Z,70.82
2022-10-22T11:16:06.077Z,70.74
2022-10-22T11:18:52.007Z,70.64
2022-10-22T11:21:31.947Z,70.53
2022-10-22T11:24:23.404Z,70.49
2022-10-22T11:27:11.906Z,70.47
2022-10-22T11:29:44.433Z,70.53
2022-10-22T11:32:13.290Z,70.38
2022-10-22T11:34:58.475Z,70.54
2022-10-22T11:37:27.324Z,70.26
2022-10-22T11:39:55.586Z,70.32
2022-10-22T11:42:39.030Z,70.50
2022-10-22T11:45:23.793Z,70.33
2022-10-22T11:47:53.094Z,70.47
2022-10-22T11:50:27.604Z,70.39
2022-10-22T11:53:15.024Z,70.52
2022-10-22T11:55:51.757Z,70.07
2022-10-22T11:58:35.185Z,70.18
2022-10-22T12:01:01.941Z,70.00
2022-10-22T12:03:28.572Z,69.68
2022-10-22T12:06:15.807Z,69.56
2022-10-22T12:08:48.921Z,69.16
2022-10-22T12:11:22.509Z,69.02
2022-10-22T12:13:58.673Z,68.86
2022-10-22T12:16:32.428Z,68.77
2022-10-22T12:19:14.440Z,68.79
2022-10-22T12:21:42.854Z,68.90
2022-10-22T12:24:13.483Z,68.91
2022-10-22T12:26:40.219Z,68.81
2022-10-22T12:29:09.845Z,68.91
2022-10-22T12:31:37.983Z,69.13
2022-10-22T12:34:04.775Z,68.95
2022-10-22T12:36:32.621Z,68.81
2022-10-22T12:39:00.389Z,68.97
2022-10-22T12:41:32.291Z,68.93
2022-10-22T12:44:00.359Z,68.87
2022-10-22T12:46:27.377Z,68.95
2022-10-22T12:48:55.906Z,69.06
2022-10-22T12:51:22.696Z,68.84
2022-10-22T12:53:49.852Z,68.87
2022-10-22T12:56:21.393Z,68.98
2022-10-22T12:58:59.830Z,69.14
2022-10-22T13:01:34.073Z,68.98
2022-10-22T13:04:13.030Z,68.85
2022-10-22T13:06:44.101Z,69.09
2022-10-22T13:09:23.838Z,68.98
2022-10-22T13:12:04.636Z,69.09
2022-10-22T13:14:33.139Z,69.10
2022-10-22T13:17:39.988Z,68.78
2022-10-22T13:20:19.266Z,68.63
2022-10-22T13:23:03.312Z,68.44
2022-10-22T13:25:31.061Z,68.19
2022-10-22T13:28:04.040Z,68.45
2022-10-22T13:30:35.358Z,68.38
2022-10-22T13:33:05.766Z,68.31
2022-10-22T13:35:34.892Z,68.11
2022-10-22T13:38:01.716Z,68.35
2022-10-22T13:40:28.383Z,68.16
2022-10-22T13:42:55.171Z,68.08
2022-10-22T13:45:21.980Z,68.04
2022-10-22T13:47:50.877Z,68.15
2022-10-22T13:50:19.008Z,68.23
2022-10-22T13:52:51.126Z,67.95
2022-10-22T13:55:26.744Z,67.99
2022-10-22T13:58:01.767Z,67.87
2022-10-22T14:00:28.682Z,67.90
2022-10-22T14:02:57.093Z,67.88
2022-10-22T14:05:23.882Z,68.08
2022-10-22T14:07:50.596Z,67.85
2022-10-22T14:10:21.240Z,67.90
2022-10-22T14:12:52.418Z,68.13
2022-10-22T14:15:24.205Z,68.17
2022-10-22T14:17:56.281Z,68.15
2022-10-22T14:20:25.160Z,68.20
2022-10-22T14:22:51.956Z,68.26
2022-10-22T14:25:19.601Z,68.65
2022-10-22T14:27:46.435Z,68.50
2022-10-22T14:30:33.478Z,68.63
2022-10-22T14:33:00.357Z,68.61
2022-10-22T14:35:27.183Z,68.58
2022-10-22T14:37:54.007Z,68.72
2022-10-22T14:40:21.081Z,68.86
2022-10-22T14:42:48.542Z,68.75
2022-10-22T14:45:25.389Z,68.95
2022-10-22T14:47:52.364Z,68.80
2022-10-22T14:50:19.217Z,68.79
2022-10-22T14:52:46.039Z,69.12
2022-10-22T14:55:13.810Z,69.06
2022-10-22T14:57:41.015Z,69.18
2022-10-22T15:00:16.236Z,69.44
2022-10-22T15:02:43.696Z,69.54
2022-10-22T15:05:10.759Z,69.69
2022-10-22T15:07:37.741Z,69.80
2022-10-22T15:10:05.262Z,70.02
2022-10-22T15:12:32.222Z,70.08
2022-10-22T15:14:58.983Z,70.43
2022-10-22T15:17:25.753Z,70.90
2022-10-22T15:19:53.300Z,71.21
2022-10-22T15:22:20.109Z,71.54
2022-10-22T15:24:48.512Z,71.54
2022-10-22T15:27:15.324Z,72.02
2022-10-22T15:29:42.267Z,72.19
2022-10-22T15:32:10.543Z,72.39
2022-10-22T15:34:38.201Z,72.83
2022-10-22T15:37:07.114Z,73.09
2022-10-22T15:39:34.092Z,73.59
2022-10-22T15:42:00.912Z,73.85
2022-10-22T15:44:28.794Z,74.11
2022-10-22T15:46:55.642Z,74.36
2022-10-22T15:49:23.764Z,74.88
2022-10-22T15:51:50.535Z,75.25
2022-10-22T15:54:18.065Z,75.44
2022-10-22T15:56:45.086Z,75.78
2022-10-22T15:59:12.593Z,75.95
2022-10-22T16:01:39.676Z,76.02
2022-10-22T16:04:07.113Z,76.18
2022-10-22T16:06:41.661Z,76.20
2022-10-22T16:09:10.965Z,76.37
2022-10-22T16:11:38.074Z,76.56
2022-10-22T16:14:05.075Z,76.62
2022-10-22T16:16:33.405Z,76.66
2022-10-22T16:19:00.300Z,76.66
2022-10-22T16:21:27.469Z,76.41
2022-10-22T16:23:54.362Z,76.50
2022-10-22T16:26:21.298Z,76.53
2022-10-22T16:28:48.495Z,76.52
2022-10-22T16:31:17.285Z,76.74
2022-10-22T16:33:46.470Z,76.90
2022-10-22T16:36:18.084Z,77.01
2022-10-22T16:38:45.430Z,77.32
2022-10-22T16:41:16.868Z,77.42
2022-10-22T16:43:45.149Z,77.52
2022-10-22T16:46:12.532Z,77.73
2022-10-22T16:48:41.460Z,77.76
2022-10-22T16:51:09.670Z,78.12
2022-10-22T16:53:36.759Z,78.19
2022-10-22T16:56:03.797Z,78.36
2022-10-22T16:58:30.748Z,78.38
2022-10-22T17:00:57.634Z,78.61
2022-10-22T17:03:27.457Z,78.79
2022-10-22T17:05:58.524Z,78.82
2022-10-22T17:08:25.383Z,79.09
2022-10-22T17:10:52.155Z,79.37
2022-10-22T17:13:19.006Z,79.70
2022-10-22T17:15:45.799Z,79.66
2022-10-22T17:18:12.639Z,79.89
2022-10-22T17:20:43.465Z,80.13
2022-10-22T17:23:10.313Z,80.27
2022-10-22T17:25:41.731Z,80.47
2022-10-22T17:28:09.036Z,80.81
2022-10-22T17:30:40.845Z,81.22
2022-10-22T17:33:08.203Z,81.53
2022-10-22T17:35:35.665Z,81.92
2022-10-22T17:38:02.514Z,82.22
2022-10-22T17:40:30.977Z,82.43
2022-10-22T17:42:57.822Z,82.55
2022-10-22T17:45:24.638Z,83.03
2022-10-22T17:47:52.201Z,83.10
2022-10-22T17:50:19.702Z,83.16
2022-10-22T17:52:46.442Z,83.10
2022-10-22T17:55:13.588Z,83.19
2022-10-22T17:57:40.334Z,82.90
2022-10-22T18:00:07.697Z,82.91
2022-10-22T18:02:34.872Z,82.94
2022-10-22T18:05:01.605Z,82.85
2022-10-22T18:07:28.375Z,82.83
2022-10-22T18:09:55.091Z,83.02
2022-10-22T18:12:23.628Z,83.18
2022-10-22T18:14:51.084Z,83.23
2022-10-22T18:17:18.367Z,83.25
2022-10-22T18:19:45.162Z,83.32
2022-10-22T18:22:12.034Z,83.64
2022-10-22T18:24:39.046Z,83.88
2022-10-22T18:27:05.894Z,83.92
2022-10-22T18:29:32.787Z,84.17
2022-10-22T18:31:59.690Z,84.23
2022-10-22T18:34:26.566Z,84.29
2022-10-22T18:36:53.348Z,84.13
2022-10-22T18:39:20.380Z,84.04
2022-10-22T18:41:47.365Z,83.73
2022-10-22T18:44:14.263Z,83.44
2022-10-22T18:46:40.952Z,83.15
2022-10-22T18:49:07.766Z,82.84
2022-10-22T18:51:34.873Z,82.72
2022-10-22T18:54:18.205Z,82.44
2022-10-22T18:56:49.083Z,82.32
2022-10-22T18:59:24.357Z,82.07
2022-10-22T19:01:54.914Z,81.89
2022-10-22T19:04:21.886Z,81.74
2022-10-22T19:06:48.640Z,81.83
2022-10-22T19:09:15.876Z,81.76
2022-10-22T19:11:43.782Z,81.76
2022-10-22T19:14:10.608Z,81.47
2022-10-22T19:16:37.711Z,81.44
2022-10-22T19:19:05.812Z,81.22
2022-10-22T19:21:32.718Z,80.94
2022-10-22T19:23:59.964Z,80.71
2022-10-22T19:26:27.607Z,80.60
2022-10-22T19:28:54.901Z,80.39
2022-10-22T19:31:22.924Z,79.98
2022-10-22T19:33:50.487Z,79.87
2022-10-22T19:36:21.064Z,79.71
2022-10-22T19:38:48.768Z,79.72
2022-10-22T19:41:17.181Z,79.62
2022-10-22T19:43:44.676Z,79.47
2022-10-22T19:46:11.738Z,79.29
2022-10-22T19:48:38.789Z,79.19
2022-10-22T19:51:08.480Z,79.11
2022-10-22T19:53:36.186Z,79.24
2022-10-22T19:56:05.191Z,79.52
2022-10-22T19:58:31.992Z,79.75
2022-10-22T20:01:03.140Z,79.68
2022-10-22T20:03:30.136Z,79.74
2022-10-22T20:05:56.998Z,79.68
2022-10-22T20:08:23.855Z,79.53
2022-10-22T20:10:50.550Z,79.35
2022-10-22T20:13:18.426Z,79.26
2022-10-22T20:15:49.304Z,79.33
2022-10-22T20:18:16.184Z,79.15
2022-10-22T20:20:43.037Z,79.02
2022-10-22T20:23:09.882Z,79.03
2022-10-22T20:25:45.275Z,78.86
2022-10-22T20:28:13.512Z,78.77
2022-10-22T20:30:46.265Z,78.58
2022-10-22T20:33:14.604Z,78.67
2022-10-22T20:35:41.453Z,78.72
2022-10-22T20:38:08.597Z,78.59
2022-10-22T20:40:35.560Z,78.56
2022-10-22T20:43:02.473Z,78.60
2022-10-22T20:45:29.275Z,78.50
2022-10-22T20:48:01.957Z,78.29
2022-10-22T20:50:31.348Z,78.19
2022-10-22T20:52:58.561Z,78.16
2022-10-22T20:55:25.387Z,78.19
2022-10-22T20:57:52.081Z,78.26
2022-10-22T21:00:18.868Z,78.25
2022-10-22T21:02:45.567Z,78.24
2022-10-22T21:05:12.271Z,78.04
2022-10-22T21:07:39.234Z,78.16
2022-10-22T21:10:06.478Z,78.18
2022-10-22T21:12:33.224Z,78.54
2022-10-22T21:14:59.936Z,78.48
2022-10-22T21:17:26.716Z,78.71
2022-10-22T21:19:53.352Z,78.91
2022-10-22T21:22:20.074Z,79.30
2022-10-22T21:24:46.892Z,79.50
2022-10-22T21:27:13.699Z,79.70
2022-10-22T21:29:40.321Z,79.78
2022-10-22T21:32:07.098Z,79.60
2022-10-22T21:34:38.146Z,79.77
2022-10-22T21:37:05.843Z,79.81
2022-10-22T21:39:32.565Z,79.92
2022-10-22T21:41:59.229Z,79.89
2022-10-22T21:44:25.944Z,80.08
2022-10-22T21:46:52.711Z,80.13
2022-10-22T21:49:19.328Z,80.24
2022-10-22T21:51:46.037Z,80.16
2022-10-22T21:54:12.823Z,80.24
2022-10-22T21:56:39.631Z,80.27
2022-10-22T21:59:06.598Z,80.30
2022-10-22T22:01:33.401Z,80.40
2022-10-22T22:04:00.159Z,80.39
2022-10-22T22:07:33.296Z,80.51
2022-10-22T22:10:00.052Z,80.46
2022-10-22T22:12:26.702Z,80.47
2022-10-22T22:14:53.462Z,80.47
2022-10-22T22:17:20.272Z,80.52
2022-10-22T22:19:46.884Z,80.63
2022-10-22T22:22:13.634Z,80.56
2022-10-22T22:24:40.276Z,80.71
2022-10-22T22:27:07.339Z,80.86
2022-10-22T22:29:34.405Z,80.88
2022-10-22T22:32:01.137Z,80.96
2022-10-22T22:34:27.861Z,81.15
2022-10-22T22:36:54.542Z,81.01
2022-10-22T22:39:22.758Z,81.19
2022-10-22T22:41:49.722Z,81.26
2022-10-22T22:44:16.577Z,81.35
2022-10-22T22:46:43.268Z,81.33
2022-10-22T22:49:10.130Z,81.29
2022-10-22T22:51:36.888Z,81.27
2022-10-22T22:54:03.617Z,81.27
2022-10-22T22:56:31.309Z,81.32
2022-10-22T22:58:58.407Z,81.26
2022-10-22T23:01:29.111Z,81.29
2022-10-22T23:04:04.257Z,81.33
2022-10-22T23:06:33.245Z,81.34
2022-10-22T23:09:00.154Z,81.34
2022-10-22T23:11:27.346Z,81.52
2022-10-22T23:13:55.862Z,81.45
2022-10-22T23:16:23.480Z,81.58
2022-10-22T23:18:50.310Z,81.60
2022-10-22T23:21:18.067Z,81.69
2022-10-22T23:23:49.637Z,81.82
2022-10-22T23:26:21.700Z,81.78
2022-10-22T23:28:48.423Z,81.90
2022-10-22T23:31:16.366Z,82.02
2022-10-22T23:33:43.162Z,82.21
2022-10-22T23:36:10.262Z,82.29
2022-10-22T23:38:37.672Z,82.40
2022-10-22T23:41:04.812Z,82.64
2022-10-22T23:43:31.786Z,82.76
2022-10-22T23:45:58.549Z,82.94
2022-10-22T23:48:25.260Z,83.08
2022-10-22T23:53:23.661Z,83.49
2022-10-22T23:55:50.285Z,83.62
2022-10-22T23:58:17.405Z,83.82
